createdAt,value
2023-02-06T00:00:19.088Z,5.51
2023-02-06T00:01:19.100Z,5.31
2023-02-06T00:02:19.139Z,5.23
2023-02-06T00:03:19.151Z,5.25
2023-02-06T00:04:19.235Z,5.44
2023-02-06T00:05:19.211Z,5.49
2023-02-06T00:06:19.244Z,5.59
2023-02-06T00:07:19.255Z,5.54
2023-02-06T00:08:19.255Z,5.64
2023-02-06T00:09:19.274Z,5.51
2023-02-06T00:10:19.292Z,5.37
2023-02-06T00:11:19.318Z,5.40
2023-02-06T00:12:19.316Z,5.36
2023-02-06T00:13:19.310Z,5.26
2023-02-06T00:14:19.320Z,5.28
2023-02-06T00:15:19.348Z,5.29
2023-02-06T00:16:19.441Z,5.36
2023-02-06T00:17:19.386Z,5.28
2023-02-06T00:18:19.392Z,5.38
2023-02-06T00:19:19.434Z,5.36
2023-02-06T00:20:19.487Z,5.38
2023-02-06T00:21:19.491Z,5.47
2023-02-06T00:22:19.499Z,5.47
2023-02-06T00:23:19.498Z,5.46
2023-02-06T00:24:19.484Z,5.36
2023-02-06T00:25:19.494Z,5.40
2023-02-06T00:26:19.521Z,5.20
2023-02-06T00:27:19.530Z,5.16
2023-02-06T00:28:19.589Z,5.20
2023-02-06T00:29:19.575Z,5.33
2023-02-06T00:30:19.578Z,5.41
2023-02-06T00:31:19.643Z,5.41
2023-02-06T00:32:19.654Z,5.46
2023-02-06T00:33:21.226Z,5.52
2023-02-06T00:34:19.708Z,5.55
2023-02-06T00:35:19.708Z,5.61
2023-02-06T00:36:19.959Z,5.58
2023-02-06T00:37:20.671Z,5.58
2023-02-06T00:38:19.787Z,5.52
2023-02-06T00:39:19.814Z,5.67
2023-02-06T00:40:19.828Z,5.62
2023-02-06T00:41:20.546Z,5.62
2023-02-06T00:42:20.762Z,5.72
2023-02-06T00:43:19.929Z,5.76
2023-02-06T00:44:19.980Z,5.70
2023-02-06T00:45:20.039Z,5.62
2023-02-06T00:46:20.080Z,5.70
2023-02-06T00:47:20.130Z,5.92
2023-02-06T00:48:20.200Z,5.80
2023-02-06T00:49:20.451Z,5.73
2023-02-06T00:50:20.163Z,5.54
2023-02-06T00:51:20.162Z,5.64
2023-02-06T00:52:20.162Z,5.76
2023-02-06T00:53:20.173Z,5.72
2023-02-06T00:54:20.174Z,5.64
2023-02-06T00:55:20.195Z,5.80
2023-02-06T00:56:20.202Z,5.69
2023-02-06T00:57:20.206Z,5.79
2023-02-06T00:58:20.203Z,5.92
2023-02-06T00:59:20.215Z,5.97
2023-02-06T01:00:20.227Z,6.06
2023-02-06T01:01:20.321Z,6.07
2023-02-06T01:02:20.274Z,6.01
2023-02-06T01:03:20.293Z,5.92
2023-02-06T01:04:20.293Z,5.81
2023-02-06T01:05:20.339Z,5.81
2023-02-06T01:06:20.362Z,5.52
2023-02-06T01:07:20.359Z,5.61
2023-02-06T01:08:20.361Z,5.54
2023-02-06T01:09:20.372Z,5.52
2023-02-06T01:10:20.391Z,5.64
2023-02-06T01:11:20.427Z,5.74
2023-02-06T01:12:20.422Z,5.83
2023-02-06T01:13:20.435Z,5.81
2023-02-06T01:14:20.441Z,5.84
2023-02-06T01:15:20.452Z,5.80
2023-02-06T01:16:20.491Z,5.83
2023-02-06T01:17:20.530Z,5.84
2023-02-06T01:18:20.560Z,5.84
2023-02-06T01:19:20.590Z,5.73
2023-02-06T01:20:20.600Z,5.73
2023-02-06T01:21:20.623Z,5.81
2023-02-06T01:22:20.628Z,5.87
2023-02-06T01:23:20.632Z,5.83
2023-02-06T01:24:20.630Z,5.65
2023-02-06T01:25:20.697Z,5.52
2023-02-06T01:26:20.706Z,5.38
2023-02-06T01:27:20.651Z,5.19
2023-02-06T01:28:20.714Z,5.28
2023-02-06T01:29:20.728Z,5.41
2023-02-06T01:30:20.817Z,5.34
2023-02-06T01:31:20.829Z,5.33
2023-02-06T01:32:20.813Z,5.19
2023-02-06T01:33:20.851Z,5.20
2023-02-06T01:34:20.841Z,5.28
2023-02-06T01:35:20.846Z,5.22
2023-02-06T01:36:20.844Z,5.13
2023-02-06T01:37:20.840Z,5.18
2023-02-06T01:38:20.842Z,5.22
2023-02-06T01:39:20.841Z,5.22
2023-02-06T01:40:20.875Z,5.23
2023-02-06T01:41:20.881Z,5.18
2023-02-06T01:42:20.892Z,5.08
2023-02-06T01:43:20.942Z,4.87
2023-02-06T01:44:20.943Z,5.01
2023-02-06T01:45:20.940Z,5.10
2023-02-06T01:46:20.976Z,5.19
2023-02-06T01:47:20.974Z,5.19
2023-02-06T01:48:20.988Z,5.18
2023-02-06T01:49:20.983Z,5.00
2023-02-06T01:50:20.984Z,5.05
2023-02-06T01:51:20.993Z,4.97
2023-02-06T01:52:20.995Z,5.05
2023-02-06T01:53:20.989Z,5.07
2023-02-06T01:54:20.986Z,5.04
2023-02-06T01:55:20.968Z,5.07
2023-02-06T01:56:20.954Z,5.08
2023-02-06T01:57:20.964Z,5.00
2023-02-06T01:58:20.963Z,5.00
2023-02-06T01:59:20.963Z,4.94
2023-02-06T02:00:20.967Z,4.86
2023-02-06T02:01:20.967Z,4.87
2023-02-06T02:02:21.060Z,4.89
2023-02-06T02:03:21.008Z,4.87
2023-02-06T02:04:20.995Z,4.89
2023-02-06T02:05:21.000Z,4.90
2023-02-06T02:06:20.990Z,4.90
2023-02-06T02:07:20.986Z,4.94
2023-02-06T02:08:21.008Z,4.92
2023-02-06T02:09:21.005Z,4.89
2023-02-06T02:10:21.016Z,4.83
2023-02-06T02:11:21.018Z,4.76
2023-02-06T02:12:21.028Z,4.74
2023-02-06T02:13:21.049Z,4.68
2023-02-06T02:14:21.097Z,4.64
2023-02-06T02:15:21.126Z,4.64
2023-02-06T02:16:21.185Z,4.66
2023-02-06T02:17:21.202Z,4.67
2023-02-06T02:18:21.202Z,4.66
2023-02-06T02:19:21.228Z,4.64
2023-02-06T02:20:21.223Z,4.66
2023-02-06T02:21:21.232Z,4.53
2023-02-06T02:22:21.304Z,4.50
2023-02-06T02:23:21.299Z,4.46
2023-02-06T02:24:21.335Z,4.43
2023-02-06T02:25:21.373Z,4.46
2023-02-06T02:26:21.406Z,4.48
2023-02-06T02:27:21.446Z,4.48
2023-02-06T02:28:21.485Z,4.58
2023-02-06T02:29:21.505Z,4.64
2023-02-06T02:30:21.554Z,4.66
2023-02-06T02:31:21.620Z,4.57
2023-02-06T02:32:21.559Z,4.49
2023-02-06T02:33:21.577Z,4.50
2023-02-06T02:34:21.608Z,4.49
2023-02-06T02:35:21.639Z,4.52
2023-02-06T02:36:21.688Z,4.46
2023-02-06T02:37:21.667Z,4.46
2023-02-06T02:38:21.672Z,4.52
2023-02-06T02:39:21.690Z,4.66
2023-02-06T02:40:21.696Z,4.76
2023-02-06T02:41:21.678Z,4.75
2023-02-06T02:42:21.725Z,4.70
2023-02-06T02:43:21.734Z,4.78
2023-02-06T02:44:21.709Z,4.75
2023-02-06T02:45:21.954Z,4.70
2023-02-06T02:46:21.868Z,4.71
2023-02-06T02:47:21.879Z,4.68
2023-02-06T02:48:21.890Z,4.67
2023-02-06T02:49:21.909Z,4.74
2023-02-06T02:50:21.899Z,4.75
2023-02-06T02:51:21.967Z,4.74
2023-02-06T02:52:22.197Z,4.64
2023-02-06T02:53:22.187Z,4.66
2023-02-06T02:54:22.126Z,4.66
2023-02-06T02:55:22.186Z,4.63
2023-02-06T02:56:22.255Z,4.53
2023-02-06T02:57:22.189Z,4.56
2023-02-06T02:58:22.176Z,4.52
2023-02-06T02:59:22.247Z,4.48
2023-02-06T03:00:22.337Z,4.40
2023-02-06T03:01:22.334Z,4.40
2023-02-06T03:02:22.362Z,4.39
2023-02-06T03:03:22.374Z,4.49
2023-02-06T03:04:22.355Z,4.49
2023-02-06T03:05:22.407Z,4.46
2023-02-06T03:06:22.465Z,4.42
2023-02-06T03:07:22.552Z,4.39
2023-02-06T03:08:22.571Z,4.42
2023-02-06T03:09:23.226Z,4.52
2023-02-06T03:10:22.633Z,4.58
2023-02-06T03:11:22.632Z,4.61
2023-02-06T03:12:22.656Z,4.49
2023-02-06T03:13:22.766Z,4.53
2023-02-06T03:14:22.697Z,4.49
2023-02-06T03:15:22.695Z,4.39
2023-02-06T03:16:22.819Z,4.32
2023-02-06T03:17:23.677Z,4.40
2023-02-06T03:18:22.876Z,4.45
2023-02-06T03:19:22.909Z,4.49
2023-02-06T03:20:23.882Z,4.46
2023-02-06T03:21:23.639Z,4.46
2023-02-06T03:22:23.970Z,4.32
2023-02-06T03:23:23.071Z,4.31
2023-02-06T03:24:23.094Z,4.40
2023-02-06T03:25:23.872Z,4.46
2023-02-06T03:26:24.069Z,4.48
2023-02-06T03:27:24.059Z,4.53
2023-02-06T03:28:24.064Z,4.56
2023-02-06T03:29:23.196Z,4.50
2023-02-06T03:30:23.210Z,4.30
2023-02-06T03:31:23.253Z,4.25
2023-02-06T03:32:23.270Z,4.25
2023-02-06T03:33:23.312Z,4.40
2023-02-06T03:34:23.302Z,4.27
2023-02-06T03:35:23.324Z,4.13
2023-02-06T03:36:23.371Z,4.10
2023-02-06T03:37:23.357Z,4.14
2023-02-06T03:38:23.391Z,4.20
2023-02-06T03:39:23.365Z,4.27
2023-02-06T03:40:23.434Z,4.39
2023-02-06T03:41:23.442Z,4.36
2023-02-06T03:42:23.503Z,4.31
2023-02-06T03:43:23.553Z,4.32
2023-02-06T03:44:23.570Z,4.42
2023-02-06T03:45:23.632Z,4.45
2023-02-06T03:46:23.635Z,4.43
2023-02-06T03:47:23.653Z,4.32
2023-02-06T03:48:23.683Z,4.34
2023-02-06T03:49:23.680Z,4.43
2023-02-06T03:50:23.763Z,4.42
2023-02-06T03:51:23.767Z,4.49
2023-02-06T03:52:23.804Z,4.56
2023-02-06T03:53:23.845Z,4.52
2023-02-06T03:54:23.905Z,4.49
2023-02-06T03:55:23.926Z,4.42
2023-02-06T03:56:24.000Z,4.39
2023-02-06T03:57:23.999Z,4.34
2023-02-06T03:58:24.719Z,4.40
2023-02-06T03:59:24.113Z,4.40
2023-02-06T04:00:24.157Z,4.25
2023-02-06T04:01:24.242Z,4.34
2023-02-06T04:02:24.262Z,4.36
2023-02-06T04:03:24.269Z,4.28
2023-02-06T04:04:24.330Z,4.22
2023-02-06T04:05:24.338Z,4.21
2023-02-06T04:06:24.350Z,4.36
2023-02-06T04:07:24.414Z,4.27
2023-02-06T04:08:24.430Z,4.21
2023-02-06T04:09:24.441Z,4.18
2023-02-06T04:10:26.212Z,4.18
2023-02-06T04:11:24.512Z,4.20
2023-02-06T04:12:24.564Z,4.31
2023-02-06T04:13:24.594Z,4.43
2023-02-06T04:14:24.602Z,4.43
2023-02-06T04:15:24.638Z,4.45
2023-02-06T04:16:24.908Z,4.42
2023-02-06T04:17:43.185Z,4.45
2023-02-06T04:18:24.665Z,4.50
2023-02-06T04:19:24.682Z,4.50
2023-02-06T04:20:24.673Z,4.43
2023-02-06T04:21:24.721Z,4.38
2023-02-06T04:22:24.753Z,4.42
2023-02-06T04:23:24.765Z,4.27
2023-02-06T04:24:24.766Z,4.09
2023-02-06T04:25:24.786Z,4.09
2023-02-06T04:26:24.774Z,4.14
2023-02-06T04:27:24.787Z,4.16
2023-02-06T04:28:24.804Z,4.25
2023-02-06T04:29:24.812Z,4.24
2023-02-06T04:30:24.859Z,4.25
2023-02-06T04:31:24.906Z,4.32
2023-02-06T04:32:24.954Z,4.14
2023-02-06T04:33:25.837Z,3.94
2023-02-06T04:34:25.014Z,3.95
2023-02-06T04:35:25.011Z,3.86
2023-02-06T04:36:24.996Z,3.73
2023-02-06T04:37:24.986Z,3.71
2023-02-06T04:38:24.987Z,3.71
2023-02-06T04:39:24.986Z,3.74
2023-02-06T04:40:24.987Z,3.64
2023-02-06T04:41:24.990Z,3.63
2023-02-06T04:42:24.980Z,3.64
2023-02-06T04:43:24.981Z,3.67
2023-02-06T04:44:24.989Z,3.61
2023-02-06T04:45:24.990Z,3.67
2023-02-06T04:46:24.989Z,3.81
2023-02-06T04:47:24.998Z,3.82
2023-02-06T04:48:24.997Z,3.82
2023-02-06T04:49:25.007Z,3.88
2023-02-06T04:50:24.998Z,3.96
2023-02-06T04:51:25.002Z,4.09
2023-02-06T04:52:25.019Z,4.16
2023-02-06T04:53:25.019Z,4.14
2023-02-06T04:54:25.040Z,4.16
2023-02-06T04:55:25.056Z,4.16
2023-02-06T04:56:25.058Z,4.06
2023-02-06T04:57:25.098Z,3.76
2023-02-06T04:58:25.091Z,3.82
2023-02-06T04:59:25.089Z,3.88
2023-02-06T05:00:25.089Z,3.77
2023-02-06T05:01:25.137Z,3.82
2023-02-06T05:02:25.156Z,3.85
2023-02-06T05:03:25.141Z,3.67
2023-02-06T05:04:25.138Z,3.67
2023-02-06T05:05:25.158Z,3.76
2023-02-06T05:06:25.149Z,3.58
2023-02-06T05:07:25.173Z,3.36
2023-02-06T05:08:25.186Z,3.40
2023-02-06T05:09:25.217Z,3.37
2023-02-06T05:10:25.235Z,3.22
2023-02-06T05:11:25.309Z,3.19
2023-02-06T05:12:25.347Z,3.21
2023-02-06T05:13:25.386Z,3.12
2023-02-06T05:14:25.389Z,3.13
2023-02-06T05:15:25.406Z,3.24
2023-02-06T05:16:25.416Z,3.12
2023-02-06T05:17:25.493Z,3.15
2023-02-06T05:18:25.576Z,3.16
2023-02-06T05:19:25.598Z,3.24
2023-02-06T05:20:25.607Z,3.48
2023-02-06T05:21:25.624Z,3.49
2023-02-06T05:22:25.655Z,3.27
2023-02-06T05:23:25.670Z,3.31
2023-02-06T05:24:25.680Z,3.31
2023-02-06T05:25:25.692Z,3.41
2023-02-06T05:26:25.676Z,3.30
2023-02-06T05:27:25.757Z,3.08
2023-02-06T05:28:25.788Z,3.09
2023-02-06T05:29:25.813Z,3.01
2023-02-06T05:30:25.828Z,3.05
2023-02-06T05:31:25.838Z,2.91
2023-02-06T05:32:25.856Z,3.01
2023-02-06T05:33:25.850Z,3.05
2023-02-06T05:34:25.857Z,2.91
2023-02-06T05:35:25.896Z,2.83
2023-02-06T05:36:25.910Z,2.65
2023-02-06T05:37:25.888Z,2.79
2023-02-06T05:38:25.898Z,2.72
2023-02-06T05:39:26.056Z,2.61
2023-02-06T05:40:25.983Z,2.62
2023-02-06T05:41:25.990Z,2.77
2023-02-06T05:42:26.064Z,2.76
2023-02-06T05:43:26.048Z,2.68
2023-02-06T05:44:26.110Z,2.47
2023-02-06T05:45:26.170Z,2.54
2023-02-06T05:46:26.199Z,2.72
2023-02-06T05:47:26.202Z,2.83
2023-02-06T05:48:26.203Z,2.93
2023-02-06T05:49:26.214Z,2.98
2023-02-06T05:50:26.220Z,2.87
2023-02-06T05:51:26.235Z,2.91
2023-02-06T05:52:26.250Z,3.06
2023-02-06T05:53:26.253Z,3.22
2023-02-06T05:54:26.297Z,3.06
2023-02-06T05:55:26.285Z,2.91
2023-02-06T05:56:26.294Z,2.95
2023-02-06T05:57:26.305Z,3.09
2023-02-06T05:58:26.305Z,2.95
2023-02-06T05:59:26.308Z,3.03
2023-02-06T06:00:26.329Z,3.15
2023-02-06T06:01:26.327Z,3.19
2023-02-06T06:02:26.377Z,2.95
2023-02-06T06:03:26.405Z,2.95
2023-02-06T06:04:26.443Z,2.97
2023-02-06T06:05:26.408Z,2.58
2023-02-06T06:06:26.467Z,2.68
2023-02-06T06:07:26.474Z,2.79
2023-02-06T06:08:26.479Z,3.06
2023-02-06T06:09:26.498Z,3.16
2023-02-06T06:10:26.500Z,3.16
2023-02-06T06:11:26.500Z,3.27
2023-02-06T06:12:26.510Z,3.29
2023-02-06T06:13:26.510Z,3.33
2023-02-06T06:14:26.536Z,3.36
2023-02-06T06:15:26.529Z,3.36
2023-02-06T06:16:26.630Z,3.33
2023-02-06T06:17:26.568Z,3.40
2023-02-06T06:18:26.571Z,3.56
2023-02-06T06:19:26.575Z,3.37
2023-02-06T06:20:26.594Z,3.53
2023-02-06T06:21:26.576Z,3.59
2023-02-06T06:22:26.565Z,3.58
2023-02-06T06:23:26.552Z,3.66
2023-02-06T06:24:26.562Z,3.71
2023-02-06T06:25:26.553Z,3.68
2023-02-06T06:26:26.564Z,3.64
2023-02-06T06:27:26.566Z,3.77
2023-02-06T06:28:26.553Z,3.74
2023-02-06T06:29:26.555Z,3.53
2023-02-06T06:30:26.553Z,3.45
2023-02-06T06:31:26.577Z,3.52
2023-02-06T06:32:26.593Z,3.40
2023-02-06T06:33:26.610Z,3.29
2023-02-06T06:34:26.609Z,3.37
2023-02-06T06:35:26.593Z,3.46
2023-02-06T06:36:26.594Z,3.61
2023-02-06T06:37:26.624Z,3.70
2023-02-06T06:38:26.664Z,3.71
2023-02-06T06:39:26.748Z,3.77
2023-02-06T06:40:26.774Z,3.82
2023-02-06T06:41:26.803Z,3.55
2023-02-06T06:42:26.831Z,3.58
2023-02-06T06:43:26.845Z,3.58
2023-02-06T06:44:26.874Z,3.49
2023-02-06T06:45:26.952Z,3.48
2023-02-06T06:46:26.991Z,3.56
2023-02-06T06:47:26.996Z,3.37
2023-02-06T06:48:27.028Z,3.27
2023-02-06T06:49:28.961Z,3.18
2023-02-06T06:50:27.105Z,3.33
2023-02-06T06:51:27.146Z,3.40
2023-02-06T06:52:27.176Z,3.52
2023-02-06T06:53:27.198Z,3.59
2023-02-06T06:54:27.226Z,3.77
2023-02-06T06:55:27.236Z,3.86
2023-02-06T06:56:27.265Z,4.00
2023-02-06T06:57:27.293Z,3.84
2023-02-06T06:58:27.307Z,3.76
2023-02-06T06:59:27.336Z,3.81
2023-02-06T07:00:27.326Z,3.59
2023-02-06T07:01:27.373Z,3.77
2023-02-06T07:02:27.376Z,3.92
2023-02-06T07:03:27.398Z,3.95
2023-02-06T07:04:27.411Z,3.82
2023-02-06T07:05:27.431Z,3.95
2023-02-06T07:06:27.438Z,3.99
2023-02-06T07:07:27.514Z,4.03
2023-02-06T07:08:27.486Z,4.03
2023-02-06T07:09:27.522Z,3.92
2023-02-06T07:10:27.531Z,3.77
2023-02-06T07:11:27.529Z,3.64
2023-02-06T07:12:27.552Z,3.71
2023-02-06T07:13:27.539Z,3.56
2023-02-06T07:14:27.573Z,3.48
2023-02-06T07:15:27.599Z,3.48
2023-02-06T07:16:27.653Z,3.50
2023-02-06T07:17:27.681Z,3.63
2023-02-06T07:18:27.709Z,3.76
2023-02-06T07:19:27.753Z,3.91
2023-02-06T07:20:27.812Z,4.03
2023-02-06T07:21:27.891Z,4.06
2023-02-06T07:22:27.880Z,3.99
2023-02-06T07:23:27.912Z,3.92
2023-02-06T07:24:27.940Z,3.92
2023-02-06T07:25:27.964Z,3.74
2023-02-06T07:26:28.024Z,3.56
2023-02-06T07:27:28.052Z,3.58
2023-02-06T07:28:28.075Z,3.56
2023-02-06T07:29:28.091Z,3.61
2023-02-06T07:30:28.158Z,3.85
2023-02-06T07:31:28.121Z,4.00
2023-02-06T07:32:28.152Z,4.12
2023-02-06T07:33:28.184Z,4.10
2023-02-06T07:34:28.233Z,4.21
2023-02-06T07:35:28.232Z,4.03
2023-02-06T07:36:28.204Z,3.92
2023-02-06T07:37:28.265Z,3.99
2023-02-06T07:38:28.325Z,4.06
2023-02-06T07:39:28.403Z,4.18
2023-02-06T07:40:43.106Z,4.22
2023-02-06T07:41:28.413Z,4.14
2023-02-06T07:42:28.406Z,4.12
2023-02-06T07:43:28.470Z,3.88
2023-02-06T07:44:28.552Z,3.99
2023-02-06T07:45:28.514Z,3.91
2023-02-06T07:46:28.599Z,3.89
2023-02-06T07:47:28.585Z,3.88
2023-02-06T07:48:28.566Z,3.88
2023-02-06T07:49:28.629Z,4.02
2023-02-06T07:50:28.686Z,3.96
2023-02-06T07:51:28.716Z,3.70
2023-02-06T07:52:28.751Z,3.58
2023-02-06T07:53:28.777Z,3.56
2023-02-06T07:54:28.825Z,3.64
2023-02-06T07:55:28.868Z,3.77
2023-02-06T07:56:28.936Z,3.94
2023-02-06T07:57:28.916Z,3.92
2023-02-06T07:58:28.918Z,3.99
2023-02-06T07:59:28.920Z,3.84
2023-02-06T08:00:28.917Z,4.02
2023-02-06T08:01:28.952Z,4.12
2023-02-06T08:02:28.977Z,4.07
2023-02-06T08:03:29.027Z,3.94
2023-02-06T08:04:29.132Z,3.76
2023-02-06T08:05:29.125Z,3.84
2023-02-06T08:06:29.162Z,4.07
2023-02-06T08:07:29.209Z,4.06
2023-02-06T08:08:29.198Z,3.92
2023-02-06T08:09:29.260Z,3.66
2023-02-06T08:10:29.367Z,3.84
2023-02-06T08:11:29.358Z,4.06
2023-02-06T08:12:29.369Z,4.13
2023-02-06T08:13:29.378Z,4.31
2023-02-06T08:14:29.349Z,4.38
2023-02-06T08:15:29.451Z,4.43
2023-02-06T08:16:29.516Z,4.27
2023-02-06T08:17:29.513Z,4.14
2023-02-06T08:18:29.576Z,4.16
2023-02-06T08:19:29.560Z,4.16
2023-02-06T08:20:29.572Z,4.14
2023-02-06T08:21:29.599Z,4.18
2023-02-06T08:22:29.602Z,4.14
2023-02-06T08:23:29.674Z,4.10
2023-02-06T08:24:29.725Z,4.00
2023-02-06T08:25:29.779Z,4.04
2023-02-06T08:26:29.789Z,4.10
2023-02-06T08:27:29.808Z,4.16
2023-02-06T08:28:29.849Z,4.16
2023-02-06T08:29:29.854Z,4.09
2023-02-06T08:30:30.066Z,4.24
2023-02-06T08:31:30.062Z,4.49
2023-02-06T08:32:29.981Z,4.34
2023-02-06T08:33:30.061Z,4.39
2023-02-06T08:34:30.101Z,4.48
2023-02-06T08:35:30.123Z,4.53
2023-02-06T08:36:30.184Z,4.57
2023-02-06T08:37:30.251Z,4.60
2023-02-06T08:38:30.329Z,4.52
2023-02-06T08:39:30.374Z,4.67
2023-02-06T08:40:30.383Z,4.53
2023-02-06T08:41:30.392Z,4.63
2023-02-06T08:42:30.415Z,4.64
2023-02-06T08:43:32.234Z,4.60
2023-02-06T08:44:30.424Z,4.58
2023-02-06T08:45:30.483Z,4.66
2023-02-06T08:46:30.507Z,4.52
2023-02-06T08:47:30.528Z,4.63
2023-02-06T08:48:30.526Z,4.50
2023-02-06T08:49:30.585Z,4.64
2023-02-06T08:50:30.662Z,4.56
2023-02-06T08:51:30.657Z,4.46
2023-02-06T08:52:30.693Z,4.56
2023-02-06T08:53:30.706Z,4.48
2023-02-06T08:54:32.189Z,4.61
2023-02-06T08:55:30.714Z,4.71
2023-02-06T08:56:30.739Z,4.79
2023-02-06T08:57:30.757Z,4.89
2023-02-06T08:58:30.850Z,4.90
2023-02-06T08:59:30.859Z,4.97
2023-02-06T09:00:30.877Z,4.95
2023-02-06T09:01:30.949Z,4.92
2023-02-06T09:02:30.955Z,4.86
2023-02-06T09:03:30.977Z,4.74
2023-02-06T09:04:30.998Z,4.61
2023-02-06T09:05:31.016Z,4.71
2023-02-06T09:06:31.017Z,4.89
2023-02-06T09:07:31.048Z,4.95
2023-02-06T09:08:31.080Z,5.01
2023-02-06T09:09:31.132Z,4.86
2023-02-06T09:10:31.247Z,4.83
2023-02-06T09:11:31.228Z,4.97
2023-02-06T09:12:31.278Z,5.05
2023-02-06T09:13:31.329Z,4.84
2023-02-06T09:14:31.380Z,4.76
2023-02-06T09:15:31.379Z,4.83
2023-02-06T09:16:31.453Z,4.79
2023-02-06T09:17:31.478Z,4.66
2023-02-06T09:18:31.510Z,4.82
2023-02-06T09:19:31.550Z,5.00
2023-02-06T09:20:31.569Z,4.90
2023-02-06T09:21:31.588Z,4.67
2023-02-06T09:22:31.617Z,4.71
2023-02-06T09:23:31.668Z,4.71
2023-02-06T09:24:31.707Z,5.01
2023-02-06T09:25:31.768Z,5.26
2023-02-06T09:26:31.779Z,5.26
2023-02-06T09:27:31.796Z,5.44
2023-02-06T09:28:31.800Z,5.56
2023-02-06T09:29:34.899Z,5.69
2023-02-06T09:30:31.940Z,5.74
2023-02-06T09:31:31.966Z,5.80
2023-02-06T09:32:31.977Z,5.77
2023-02-06T09:33:32.036Z,5.72
2023-02-06T09:34:32.076Z,5.70
2023-02-06T09:35:32.067Z,5.79
2023-02-06T09:36:32.077Z,5.90
2023-02-06T09:37:32.104Z,5.92
2023-02-06T09:38:32.140Z,5.73
2023-02-06T09:39:32.154Z,5.81
2023-02-06T09:40:32.181Z,5.94
2023-02-06T09:41:32.188Z,5.97
2023-02-06T09:42:32.228Z,5.99
2023-02-06T09:43:32.277Z,6.01
2023-02-06T09:44:32.346Z,5.98
2023-02-06T09:45:32.396Z,6.02
2023-02-06T09:46:32.528Z,5.88
2023-02-06T09:47:32.414Z,5.44
2023-02-06T09:48:32.438Z,5.34
2023-02-06T09:49:32.477Z,5.22
2023-02-06T09:50:32.508Z,5.23
2023-02-06T09:51:32.571Z,5.26
2023-02-06T09:52:32.581Z,5.31
2023-02-06T09:53:32.575Z,5.44
2023-02-06T09:54:32.618Z,5.56
2023-02-06T09:55:32.644Z,5.65
2023-02-06T09:56:32.723Z,5.69
2023-02-06T09:57:32.751Z,5.69
2023-02-06T09:58:32.793Z,5.46
2023-02-06T09:59:32.839Z,5.43
2023-02-06T10:00:32.830Z,5.23
2023-02-06T10:01:32.900Z,4.97
2023-02-06T10:02:32.900Z,4.84
2023-02-06T10:03:32.949Z,4.87
2023-02-06T10:04:33.000Z,5.16
2023-02-06T10:05:33.021Z,5.37
2023-02-06T10:06:33.042Z,5.51
2023-02-06T10:07:33.041Z,5.59
2023-02-06T10:08:34.483Z,5.46
2023-02-06T10:09:33.108Z,5.31
2023-02-06T10:10:33.133Z,5.36
2023-02-06T10:11:33.197Z,5.37
2023-02-06T10:12:33.216Z,5.40
2023-02-06T10:13:33.269Z,5.47
2023-02-06T10:14:33.308Z,5.36
2023-02-06T10:15:33.403Z,5.28
2023-02-06T10:16:33.386Z,5.22
2023-02-06T10:17:33.376Z,4.94
2023-02-06T10:18:33.400Z,4.71
2023-02-06T10:19:33.414Z,4.82
2023-02-06T10:20:33.492Z,4.76
2023-02-06T10:21:33.477Z,4.78
2023-02-06T10:22:33.549Z,4.57
2023-02-06T10:23:33.499Z,4.60
2023-02-06T10:24:33.568Z,4.74
2023-02-06T10:25:33.589Z,4.97
2023-02-06T10:26:33.650Z,5.22
2023-02-06T10:27:33.747Z,5.49
2023-02-06T10:28:33.780Z,5.73
2023-02-06T10:29:33.817Z,5.77
2023-02-06T10:30:33.837Z,5.73
2023-02-06T10:31:33.926Z,5.91
2023-02-06T10:32:33.941Z,6.09
2023-02-06T10:33:33.980Z,6.26
2023-02-06T10:34:34.022Z,6.22
2023-02-06T10:35:34.445Z,5.91
2023-02-06T10:36:34.132Z,5.76
2023-02-06T10:37:34.184Z,5.55
2023-02-06T10:38:34.229Z,5.55
2023-02-06T10:39:34.284Z,5.77
2023-02-06T10:40:34.343Z,5.97
2023-02-06T10:41:34.378Z,6.12
2023-02-06T10:42:34.425Z,6.10
2023-02-06T10:43:34.447Z,6.02
2023-02-06T10:44:34.469Z,5.69
2023-02-06T10:45:34.849Z,5.34
2023-02-06T10:46:34.518Z,5.28
2023-02-06T10:47:34.485Z,5.40
2023-02-06T10:48:34.522Z,5.40
2023-02-06T10:49:34.563Z,5.29
2023-02-06T10:50:34.603Z,5.33
2023-02-06T10:51:34.637Z,5.29
2023-02-06T10:52:34.702Z,5.43
2023-02-06T10:53:34.710Z,5.62
2023-02-06T10:54:34.737Z,5.95
2023-02-06T10:55:34.740Z,6.20
2023-02-06T10:56:34.780Z,6.06
2023-02-06T10:57:34.801Z,6.05
2023-02-06T10:58:34.848Z,6.02
2023-02-06T10:59:34.869Z,5.94
2023-02-06T11:00:35.289Z,6.12
2023-02-06T11:01:35.029Z,6.35
2023-02-06T11:02:34.988Z,6.20
2023-02-06T11:03:35.001Z,5.97
2023-02-06T11:04:34.992Z,5.90
2023-02-06T11:05:35.909Z,5.65
2023-02-06T11:06:35.045Z,5.46
2023-02-06T11:07:35.050Z,5.87
2023-02-06T11:08:35.050Z,6.22
2023-02-06T11:09:35.059Z,6.20
2023-02-06T11:10:35.444Z,6.12
2023-02-06T11:11:35.080Z,6.10
2023-02-06T11:12:35.134Z,5.83
2023-02-06T11:13:35.135Z,5.87
2023-02-06T11:14:35.141Z,6.29
2023-02-06T11:15:35.453Z,6.34
2023-02-06T11:16:35.225Z,6.25
2023-02-06T11:17:35.222Z,6.34
2023-02-06T11:18:35.256Z,6.68
2023-02-06T11:19:35.272Z,6.96
2023-02-06T11:20:35.690Z,7.10
2023-02-06T11:21:35.313Z,6.95
2023-02-06T11:22:47.702Z,7.00
2023-02-06T11:23:35.421Z,7.04
2023-02-06T11:24:35.526Z,7.19
2023-02-06T11:25:35.801Z,7.18
2023-02-06T11:26:35.486Z,6.85
2023-02-06T11:27:35.506Z,6.62
2023-02-06T11:28:35.516Z,6.57
2023-02-06T11:29:35.604Z,6.62
2023-02-06T11:30:35.936Z,6.77
2023-02-06T11:31:35.617Z,6.70
2023-02-06T11:32:35.572Z,6.62
2023-02-06T11:33:35.625Z,6.59
2023-02-06T11:34:35.674Z,6.41
2023-02-06T11:35:36.013Z,6.49
2023-02-06T11:36:35.756Z,6.59
2023-02-06T11:37:35.846Z,6.62
2023-02-06T11:38:35.877Z,6.59
2023-02-06T11:39:35.895Z,6.90
2023-02-06T11:40:36.277Z,7.08
2023-02-06T11:41:35.967Z,7.14
2023-02-06T11:42:35.977Z,7.23
2023-02-06T11:43:35.998Z,6.96
2023-02-06T11:44:35.998Z,6.70
2023-02-06T11:45:36.408Z,6.44
2023-02-06T11:46:36.114Z,6.52
2023-02-06T11:47:37.893Z,6.59
2023-02-06T11:48:36.847Z,6.72
2023-02-06T11:49:36.220Z,6.89
2023-02-06T11:50:36.537Z,7.13
2023-02-06T11:51:36.254Z,7.14
2023-02-06T11:52:36.279Z,7.23
2023-02-06T11:53:36.318Z,7.55
2023-02-06T11:54:36.432Z,7.72
2023-02-06T11:55:36.785Z,7.83
2023-02-06T11:56:36.409Z,7.90
2023-02-06T11:57:36.430Z,7.91
2023-02-06T11:58:36.469Z,7.75
2023-02-06T11:59:36.548Z,7.37
2023-02-06T12:00:36.524Z,7.14
2023-02-06T12:01:36.581Z,7.04
2023-02-06T12:02:36.693Z,7.21
2023-02-06T12:03:36.689Z,7.11
2023-02-06T12:04:36.761Z,7.22
2023-02-06T12:05:37.090Z,7.53
2023-02-06T12:06:36.843Z,7.81
2023-02-06T12:07:36.901Z,7.64
2023-02-06T12:08:36.924Z,7.69
2023-02-06T12:09:36.957Z,7.69
2023-02-06T12:10:36.974Z,7.67
2023-02-06T12:11:36.995Z,7.46
2023-02-06T12:12:37.029Z,7.15
2023-02-06T12:13:37.016Z,7.03
2023-02-06T12:14:37.095Z,6.96
2023-02-06T12:15:46.410Z,7.13
2023-02-06T12:16:37.227Z,7.47
2023-02-06T12:17:37.185Z,7.77
2023-02-06T12:18:37.210Z,7.93
2023-02-06T12:19:37.231Z,8.06
2023-02-06T12:20:37.259Z,8.13
2023-02-06T12:21:37.292Z,8.27
2023-02-06T12:22:37.297Z,8.23
2023-02-06T12:23:37.317Z,8.28
2023-02-06T12:24:37.379Z,8.08
2023-02-06T12:25:37.681Z,8.09
2023-02-06T12:26:37.437Z,8.05
2023-02-06T12:27:39.234Z,8.02
2023-02-06T12:28:37.481Z,7.88
2023-02-06T12:29:37.487Z,7.81
2023-02-06T12:30:37.621Z,8.02
2023-02-06T12:31:37.752Z,7.90
2023-02-06T12:32:37.526Z,7.78
2023-02-06T12:33:37.527Z,7.93
2023-02-06T12:34:37.557Z,8.17
2023-02-06T12:35:37.978Z,8.17
2023-02-06T12:36:37.636Z,8.17
2023-02-06T12:37:37.676Z,8.11
2023-02-06T12:38:37.719Z,8.26
2023-02-06T12:39:37.766Z,8.09
2023-02-06T12:40:37.816Z,8.17
2023-02-06T12:41:37.884Z,8.34
2023-02-06T12:42:37.925Z,8.46
2023-02-06T12:43:37.989Z,8.63
2023-02-06T12:44:37.965Z,8.74
2023-02-06T12:45:38.329Z,8.69
2023-02-06T12:46:37.975Z,8.59
2023-02-06T12:47:38.066Z,8.28
2023-02-06T12:48:38.106Z,8.17
2023-02-06T12:49:38.128Z,8.24
2023-02-06T12:50:38.268Z,8.42
2023-02-06T12:51:38.346Z,8.45
2023-02-06T12:52:38.287Z,8.34
2023-02-06T12:53:39.128Z,8.21
2023-02-06T12:54:38.268Z,8.16
2023-02-06T12:55:41.027Z,7.96
2023-02-06T12:56:38.780Z,7.98
2023-02-06T12:57:38.299Z,8.05
2023-02-06T12:58:38.383Z,8.18
2023-02-06T12:59:43.721Z,8.17
2023-02-06T13:00:38.393Z,8.21
2023-02-06T13:01:38.428Z,8.20
2023-02-06T13:02:38.432Z,8.27
2023-02-06T13:03:38.430Z,8.39
2023-02-06T13:04:38.470Z,8.52
2023-02-06T13:05:38.944Z,8.57
2023-02-06T13:06:38.553Z,8.56
2023-02-06T13:07:48.772Z,8.50
2023-02-06T13:08:38.603Z,8.36
2023-02-06T13:09:41.500Z,8.06
2023-02-06T13:10:38.835Z,7.99
2023-02-06T13:11:38.607Z,8.01
2023-02-06T13:12:39.527Z,7.96
2023-02-06T13:13:38.705Z,8.24
2023-02-06T13:14:40.064Z,8.27
2023-02-06T13:15:39.172Z,8.06
2023-02-06T13:16:38.767Z,7.96
2023-02-06T13:17:39.659Z,7.99
2023-02-06T13:18:38.787Z,7.95